Time;durP1;ratioP1;P1;durP2;ratioP2;P2;SDS_P1;SDS_P2;PMS_P1;PMS_P2;Temp;Humidity;BMP_temperature;BMP_pressure;BME280_temperature;BME280_humidity;BME280_pressure;Samples;Min_cycle;Max_cycle;Signal;HPM_P1;HPM_P2
2024/01/05 00:00:46;;;;;;;11.63;5.50;;;;;;;;;;5000147;28;20240;-69
2024/01/05 00:03:11;;;;;;;10.23;4.30;;;;;;;;;;4995906;28;20615;-68
2024/01/05 00:05:39;;;;;;;13.77;4.80;;;;;;;;;;5001111;28;20187;-69
2024/01/05 00:08:04;;;;;;;13.27;5.40;;;;;;;;;;4995410;28;20729;-68
2024/01/05 00:10:30;;;;;;;12.10;4.70;;;;;;;;;;4998110;28;20175;-69
2024/01/05 00:12:55;;;;;;;19.63;5.67;;;;;;;;;;4976945;28;20195;-68
2024/01/05 00:15:20;;;;;;;13.03;5.23;;;;;;;;;;5011200;28;20221;-70
2024/01/05 00:17:46;;;;;;;14.13;5.37;;;;;;;;;;4998208;28;20202;-69
2024/01/05 00:20:11;;;;;;;14.60;4.60;;;;;;;;;;5009217;28;20655;-70
2024/01/05 00:22:37;;;;;;;15.10;5.10;;;;;;;;;;5011632;28;20274;-69
2024/01/05 00:25:03;;;;;;;11.07;4.77;;;;;;;;;;5011531;28;20183;-69
2024/01/05 00:27:28;;;;;;;15.60;4.50;;;;;;;;;;5011467;28;20737;-69
2024/01/05 00:29:53;;;;;;;10.30;4.57;;;;;;;;;;5010401;28;20266;-69
2024/01/05 00:32:18;;;;;;;12.47;5.40;;;;;;;;;;5011619;28;20270;-69
2024/01/05 00:34:43;;;;;;;16.80;5.40;;;;;;;;;;5002143;28;20206;-70
2024/01/05 00:37:09;;;;;;;12.60;5.23;;;;;;;;;;5004842;28;20230;-70
2024/01/05 00:39:34;;;;;;;11.80;5.30;;;;;;;;;;5017881;28;20676;-69
2024/01/05 00:42:04;;;;;;;10.80;4.97;;;;;;;;;;5009101;28;20740;-68
2024/01/05 00:44:29;;;;;;;15.23;4.60;;;;;;;;;;5015324;28;20676;-69
2024/01/05 00:46:54;;;;;;;12.37;5.03;;;;;;;;;;5021054;28;20274;-69
2024/01/05 00:49:19;;;;;;;17.87;4.83;;;;;;;;;;5010450;28;20567;-69
2024/01/05 00:51:45;;;;;;;19.70;4.60;;;;;;;;;;4992041;28;20273;-69
2024/01/05 00:54:10;;;;;;;12.37;5.00;;;;;;;;;;5001768;28;20253;-68
2024/01/05 00:56:35;;;;;;;12.90;4.03;;;;;;;;;;5013331;28;20182;-69
2024/01/05 00:59:00;;;;;;;19.47;4.50;;;;;;;;;;5013263;28;20203;-69
2024/01/05 01:01:26;;;;;;;14.83;5.43;;;;;;;;;;5017510;28;20450;-70
2024/01/05 01:03:51;;;;;;;12.00;4.83;;;;;;;;;;5017127;28;20662;-69
2024/01/05 01:06:16;;;;;;;16.60;4.70;;;;;;;;;;5013814;28;20194;-69
2024/01/05 01:08:41;;;;;;;13.97;5.00;;;;;;;;;;5011904;28;20229;-69
2024/01/05 01:11:12;;;;;;;14.20;4.40;;;;;;;;;;5014409;28;20194;-69
2024/01/05 01:13:37;;;;;;;10.97;5.30;;;;;;;;;;5016450;28;20187;-69
2024/01/05 01:16:03;;;;;;;12.23;5.73;;;;;;;;;;5018813;28;20202;-69
2024/01/05 01:18:28;;;;;;;11.67;4.57;;;;;;;;;;5017418;28;20202;-70
2024/01/05 01:20:53;;;;;;;12.60;4.13;;;;;;;;;;5016317;28;20179;-70
2024/01/05 01:23:18;;;;;;;18.80;4.00;;;;;;;;;;5016703;28;20170;-69
2024/01/05 01:25:43;;;;;;;15.00;4.43;;;;;;;;;;5013059;28;20187;-69
2024/01/05 01:28:09;;;;;;;10.20;3.80;;;;;;;;;;4993030;28;20203;-69
2024/01/05 01:30:34;;;;;;;15.33;3.97;;;;;;;;;;5017200;28;20175;-69
2024/01/05 01:32:59;;;;;;;18.90;4.00;;;;;;;;;;5011532;28;20575;-69
2024/01/05 01:35:24;;;;;;;18.47;4.53;;;;;;;;;;5012146;28;20202;-69
2024/01/05 01:37:49;;;;;;;12.47;3.97;;;;;;;;;;5015353;28;20249;-68
2024/01/05 01:40:15;;;;;;;12.50;3.57;;;;;;;;;;5016637;28;20179;-70
2024/01/05 01:42:43;;;;;;;15.60;4.23;;;;;;;;;;5007850;28;20697;-69
2024/01/05 01:45:08;;;;;;;13.40;3.63;;;;;;;;;;5013850;28;20603;-69
2024/01/05 01:47:34;;;;;;;18.73;3.47;;;;;;;;;;5021602;28;20290;-69
2024/01/05 01:49:59;;;;;;;16.33;3.97;;;;;;;;;;5002478;28;20235;-69
2024/01/05 01:52:25;;;;;;;9.53;3.50;;;;;;;;;;5002691;28;20574;-69
2024/01/05 01:54:50;;;;;;;23.03;5.07;;;;;;;;;;5014592;28;20202;-69
2024/01/05 01:57:17;;;;;;;10.87;2.73;;;;;;;;;;5027146;28;20205;-70
2024/01/05 01:59:42;;;;;;;11.07;4.30;;;;;;;;;;5007540;28;20698;-69
2024/01/05 02:02:10;;;;;;;8.67;3.07;;;;;;;;;;5013922;28;20262;-70
2024/01/05 02:04:35;;;;;;;7.63;2.90;;;;;;;;;;5011702;28;20187;-69
2024/01/05 02:07:01;;;;;;;8.37;2.73;;;;;;;;;;5013454;28;20253;-69
2024/01/05 02:09:26;;;;;;;7.33;2.77;;;;;;;;;;4982132;23;20228;-68
2024/01/05 02:11:51;;;;;;;8.73;3.00;;;;;;;;;;4968120;28;20203;-68
2024/01/05 02:14:16;;;;;;;8.07;3.00;;;;;;;;;;4972913;28;20216;-68
2024/01/05 02:16:42;;;;;;;20.73;3.40;;;;;;;;;;4977063;28;20184;-68
2024/01/05 02:19:07;;;;;;;9.20;2.47;;;;;;;;;;4973083;28;20287;-67
2024/01/05 02:21:37;;;;;;;11.33;2.60;;;;;;;;;;4973827;28;20177;-68
2024/01/05 02:24:02;;;;;;;12.10;2.70;;;;;;;;;;4968425;28;20189;-68
2024/01/05 02:26:27;;;;;;;16.90;2.90;;;;;;;;;;4981003;28;20181;-67
2024/01/05 02:28:53;;;;;;;17.43;3.27;;;;;;;;;;4960961;28;20203;-68
2024/01/05 02:31:18;;;;;;;18.23;2.53;;;;;;;;;;4968993;28;20212;-68
2024/01/05 02:33:43;;;;;;;11.17;2.67;;;;;;;;;;4969581;28;20607;-68
2024/01/05 02:36:08;;;;;;;9.50;2.20;;;;;;;;;;4964077;28;20203;-68
2024/01/05 02:38:34;;;;;;;10.23;2.30;;;;;;;;;;4973659;28;20266;-68
2024/01/05 02:41:00;;;;;;;7.63;1.90;;;;;;;;;;4970939;28;20188;-68
2024/01/05 02:43:25;;;;;;;9.33;2.90;;;;;;;;;;4973151;28;20263;-68
2024/01/05 02:45:50;;;;;;;8.00;1.77;;;;;;;;;;4971831;28;20305;-68
2024/01/05 02:48:15;;;;;;;10.93;2.07;;;;;;;;;;4971016;28;20200;-68
2024/01/05 02:50:41;;;;;;;8.13;1.90;;;;;;;;;;4989046;28;20207;-67
2024/01/05 02:53:06;;;;;;;4.83;1.63;;;;;;;;;;4963510;28;20570;-69
2024/01/05 02:55:31;;;;;;;7.50;2.20;;;;;;;;;;4969731;28;20287;-68
2024/01/05 02:57:56;;;;;;;4.87;1.83;;;;;;;;;;4969532;28;20204;-68
2024/01/05 03:00:22;;;;;;;8.17;1.67;;;;;;;;;;4970746;28;20596;-68
2024/01/05 03:02:47;;;;;;;7.23;1.90;;;;;;;;;;4972320;28;20176;-68
2024/01/05 03:05:12;;;;;;;6.40;1.53;;;;;;;;;;4970249;28;20676;-68
2024/01/05 03:07:37;;;;;;;9.00;1.83;;;;;;;;;;4972011;28;20214;-69
2024/01/05 03:10:03;;;;;;;8.20;2.43;;;;;;;;;;4968533;28;20215;-68
2024/01/05 03:12:28;;;;;;;9.57;2.73;;;;;;;;;;4963229;28;20173;-67
2024/01/05 03:14:53;;;;;;;8.40;1.83;;;;;;;;;;4971603;28;20259;-68
2024/01/05 03:17:18;;;;;;;7.10;2.30;;;;;;;;;;4971000;28;20176;-67
2024/01/05 03:19:44;;;;;;;5.50;2.80;;;;;;;;;;4973071;28;20541;-68
2024/01/05 03:22:09;;;;;;;15.20;1.73;;;;;;;;;;4971743;28;20235;-68
2024/01/05 03:24:34;;;;;;;5.80;2.07;;;;;;;;;;4972162;28;20259;-67
2024/01/05 03:27:00;;;;;;;4.97;2.43;;;;;;;;;;4970722;28;20518;-68
2024/01/05 03:29:25;;;;;;;6.07;2.00;;;;;;;;;;4965403;28;20251;-68
2024/01/05 03:31:50;;;;;;;8.50;1.80;;;;;;;;;;4971800;28;20180;-68
2024/01/05 03:34:15;;;;;;;6.23;2.10;;;;;;;;;;4968466;28;20236;-68
2024/01/05 03:36:41;;;;;;;5.47;1.90;;;;;;;;;;4985020;28;20187;-68
2024/01/05 03:39:06;;;;;;;8.57;1.80;;;;;;;;;;4971641;28;20742;-68
2024/01/05 03:41:32;;;;;;;4.27;1.73;;;;;;;;;;4971639;28;20195;-68
2024/01/05 03:43:57;;;;;;;6.70;2.47;;;;;;;;;;4971472;28;20180;-68
2024/01/05 03:46:22;;;;;;;5.13;1.57;;;;;;;;;;4970469;28;20212;-68
2024/01/05 03:48:47;;;;;;;7.93;2.33;;;;;;;;;;4966295;28;20673;-68
2024/01/05 03:51:12;;;;;;;8.33;2.10;;;;;;;;;;4965663;28;20180;-68
2024/01/05 03:53:38;;;;;;;10.90;2.37;;;;;;;;;;4972411;28;20211;-68
2024/01/05 03:56:03;;;;;;;8.40;2.10;;;;;;;;;;4971555;28;20208;-68
2024/01/05 03:58:29;;;;;;;6.47;1.60;;;;;;;;;;4970088;28;20629;-68
2024/01/05 04:00:54;;;;;;;6.60;1.70;;;;;;;;;;4970846;28;20651;-68
2024/01/05 04:03:19;;;;;;;7.80;2.13;;;;;;;;;;4971032;28;20199;-68
2024/01/05 04:05:45;;;;;;;6.27;2.00;;;;;;;;;;4965249;28;20188;-68
2024/01/05 04:08:10;;;;;;;7.80;1.80;;;;;;;;;;4965993;28;20299;-68
2024/01/05 04:10:36;;;;;;;3.97;1.70;;;;;;;;;;4964949;28;21000;-68
2024/01/05 04:13:01;;;;;;;6.70;1.67;;;;;;;;;;4971499;28;20183;-70
2024/01/05 04:15:27;;;;;;;3.67;1.70;;;;;;;;;;4969701;28;20290;-68
2024/01/05 04:17:52;;;;;;;13.30;2.17;;;;;;;;;;4968567;28;20210;-68
2024/01/05 04:20:18;;;;;;;8.17;1.90;;;;;;;;;;4971890;28;20177;-67
2024/01/05 04:22:43;;;;;;;6.03;2.30;;;;;;;;;;4971434;28;20568;-68
2024/01/05 04:25:08;;;;;;;9.23;1.33;;;;;;;;;;4970348;28;20180;-68
2024/01/05 04:27:33;;;;;;;5.40;1.70;;;;;;;;;;4964616;28;20200;-68
2024/01/05 04:29:59;;;;;;;6.13;1.40;;;;;;;;;;4967946;28;20181;-68
2024/01/05 04:32:24;;;;;;;6.40;1.87;;;;;;;;;;4961845;28;20208;-68
2024/01/05 04:34:49;;;;;;;7.63;1.67;;;;;;;;;;4966360;28;20283;-67
2024/01/05 04:37:14;;;;;;;8.60;1.70;;;;;;;;;;4968519;28;20172;-67
2024/01/05 04:39:40;;;;;;;4.40;1.57;;;;;;;;;;4971017;28;20176;-68
2024/01/05 04:42:05;;;;;;;6.87;1.70;;;;;;;;;;4971616;28;20231;-68
2024/01/05 04:44:30;;;;;;;15.37;2.47;;;;;;;;;;4965196;28;20187;-68
2024/01/05 04:46:55;;;;;;;7.93;1.53;;;;;;;;;;4969576;28;20189;-68
2024/01/05 04:49:20;;;;;;;7.17;1.70;;;;;;;;;;4964651;28;20205;-68
2024/01/05 04:51:46;;;;;;;3.50;1.30;;;;;;;;;;4968381;28;20220;-68
2024/01/05 04:54:11;;;;;;;6.63;1.77;;;;;;;;;;4965280;28;20181;-67
2024/01/05 04:56:36;;;;;;;10.23;1.60;;;;;;;;;;4969774;28;20203;-68
2024/01/05 04:59:02;;;;;;;5.20;1.20;;;;;;;;;;4970969;28;20207;-66
2024/01/05 05:01:27;;;;;;;13.10;1.97;;;;;;;;;;4970640;28;20180;-68
2024/01/05 05:03:52;;;;;;;4.73;1.40;;;;;;;;;;4971491;28;20199;-67
2024/01/05 05:06:17;;;;;;;3.67;1.13;;;;;;;;;;4971615;28;20945;-68
2024/01/05 05:08:42;;;;;;;3.40;1.37;;;;;;;;;;4964847;28;20216;-68
2024/01/05 05:11:08;;;;;;;11.33;1.60;;;;;;;;;;4966679;28;20663;-68
2024/01/05 05:13:33;;;;;;;7.03;1.47;;;;;;;;;;4968992;28;20271;-68
2024/01/05 05:15:58;;;;;;;3.67;1.30;;;;;;;;;;4967394;28;20239;-67
2024/01/05 05:18:23;;;;;;;1.80;1.03;;;;;;;;;;4969081;28;20199;-68
2024/01/05 05:20:48;;;;;;;5.20;1.93;;;;;;;;;;4970223;28;20659;-68
2024/01/05 05:23:14;;;;;;;7.77;1.20;;;;;;;;;;4969602;28;20181;-68
2024/01/05 05:25:39;;;;;;;6.80;1.33;;;;;;;;;;4969361;28;20192;-68
2024/01/05 05:28:04;;;;;;;9.07;1.30;;;;;;;;;;4964930;28;20294;-68
2024/01/05 05:30:29;;;;;;;6.13;1.50;;;;;;;;;;4969030;28;20554;-67
2024/01/05 05:32:55;;;;;;;4.67;1.43;;;;;;;;;;4962031;28;20184;-68
2024/01/05 05:35:20;;;;;;;5.50;1.30;;;;;;;;;;4967998;28;20204;-65
2024/01/05 05:37:45;;;;;;;6.97;1.53;;;;;;;;;;4968957;28;20251;-68
2024/01/05 05:40:11;;;;;;;4.73;1.57;;;;;;;;;;4971577;28;20228;-68
2024/01/05 05:42:36;;;;;;;7.47;1.70;;;;;;;;;;4969379;28;20181;-67
2024/01/05 05:45:01;;;;;;;3.50;1.27;;;;;;;;;;4973393;28;20275;-68
2024/01/05 05:47:26;;;;;;;3.53;1.10;;;;;;;;;;4972025;28;20187;-67
2024/01/05 05:49:53;;;;;;;3.43;1.40;;;;;;;;;;4968606;28;20188;-68
2024/01/05 05:52:18;;;;;;;5.40;1.50;;;;;;;;;;4969701;28;20188;-68
2024/01/05 05:54:43;;;;;;;8.87;1.90;;;;;;;;;;4968605;28;20679;-68
2024/01/05 05:57:09;;;;;;;4.13;1.40;;;;;;;;;;4973115;28;20203;-68
2024/01/05 05:59:34;;;;;;;4.90;1.53;;;;;;;;;;4973293;28;20203;-68
2024/01/05 06:01:59;;;;;;;4.87;1.90;;;;;;;;;;4973943;28;20239;-67
2024/01/05 06:04:24;;;;;;;3.33;1.23;;;;;;;;;;4971896;28;20184;-68
2024/01/05 06:06:49;;;;;;;6.27;1.43;;;;;;;;;;4972333;28;20583;-67
2024/01/05 06:09:15;;;;;;;4.83;1.87;;;;;;;;;;4968229;28;20725;-67
2024/01/05 06:11:40;;;;;;;4.40;0.93;;;;;;;;;;4969000;28;20256;-68
2024/01/05 06:14:05;;;;;;;11.03;1.17;;;;;;;;;;4971398;28;20327;-68
2024/01/05 06:16:30;;;;;;;5.73;1.17;;;;;;;;;;4970558;28;20230;-68
2024/01/05 06:18:55;;;;;;;6.23;1.37;;;;;;;;;;4972839;28;20278;-68
2024/01/05 06:21:21;;;;;;;7.60;1.80;;;;;;;;;;4971479;28;20307;-68
2024/01/05 06:23:46;;;;;;;3.43;0.70;;;;;;;;;;4972760;28;20683;-68
2024/01/05 06:26:11;;;;;;;3.07;0.70;;;;;;;;;;4972101;28;20302;-68
2024/01/05 06:28:36;;;;;;;1.17;0.60;;;;;;;;;;4965300;28;20203;-68
2024/01/05 06:31:02;;;;;;;1.90;0.73;;;;;;;;;;4964680;28;20445;-68
2024/01/05 06:33:27;;;;;;;2.20;0.50;;;;;;;;;;4954980;28;20183;-68
2024/01/05 06:35:52;;;;;;;1.83;0.50;;;;;;;;;;4973311;28;20212;-68
2024/01/05 06:38:18;;;;;;;0.90;0.50;;;;;;;;;;4969859;28;20204;-68
2024/01/05 06:40:44;;;;;;;0.90;0.40;;;;;;;;;;4973642;28;20183;-68
2024/01/05 06:43:09;;;;;;;1.73;0.70;;;;;;;;;;4970478;28;20184;-68
2024/01/05 06:45:34;;;;;;;1.30;0.80;;;;;;;;;;4972405;28;20176;-68
2024/01/05 06:47:59;;;;;;;1.77;0.40;;;;;;;;;;4962358;28;20223;-67
2024/01/05 06:50:25;;;;;;;1.93;0.60;;;;;;;;;;4962994;28;20544;-68
2024/01/05 06:52:50;;;;;;;1.13;0.40;;;;;;;;;;4971929;28;20176;-67
2024/01/05 06:55:15;;;;;;;1.03;0.30;;;;;;;;;;4971176;28;20208;-68
2024/01/05 06:57:41;;;;;;;0.40;0.20;;;;;;;;;;4971825;28;20208;-68
2024/01/05 07:00:09;;;;;;;0.20;0.10;;;;;;;;;;4969996;28;20195;-68
2024/01/05 07:02:35;;;;;;;0.50;0.20;;;;;;;;;;4964622;28;20271;-67
2024/01/05 07:05:00;;;;;;;0.20;0.20;;;;;;;;;;4971389;28;20668;-68
2024/01/05 07:07:25;;;;;;;0.40;0.27;;;;;;;;;;4969687;28;20668;-68
2024/01/05 07:09:51;;;;;;;0.30;0.20;;;;;;;;;;4971922;28;21590;-68
2024/01/05 07:12:16;;;;;;;1.67;0.63;;;;;;;;;;4968949;28;20263;-68
2024/01/05 07:14:41;;;;;;;1.70;0.27;;;;;;;;;;4963061;28;20216;-68
2024/01/05 07:17:06;;;;;;;0.60;0.20;;;;;;;;;;4966670;28;20263;-68
2024/01/05 07:19:31;;;;;;;4.33;0.20;;;;;;;;;;4978636;28;20196;-68
2024/01/05 07:21:57;;;;;;;3.30;0.40;;;;;;;;;;4971741;28;20581;-68
2024/01/05 07:24:22;;;;;;;0.97;0.30;;;;;;;;;;4972470;28;20535;-67
2024/01/05 07:26:47;;;;;;;3.30;0.40;;;;;;;;;;4971484;28;20184;-68
2024/01/05 07:29:13;;;;;;;0.90;0.50;;;;;;;;;;4972872;28;20887;-67
2024/01/05 07:31:38;;;;;;;0.33;0.20;;;;;;;;;;4967195;28;20181;-68
2024/01/05 07:34:03;;;;;;;2.27;0.60;;;;;;;;;;4969183;28;20226;-67
2024/01/05 07:36:29;;;;;;;2.10;0.50;;;;;;;;;;4972685;28;20196;-68
2024/01/05 07:38:58;;;;;;;0.93;0.50;;;;;;;;;;4977545;28;20192;-67
2024/01/05 07:41:24;;;;;;;1.50;0.60;;;;;;;;;;4971576;28;20180;-68
2024/01/05 07:43:49;;;;;;;0.77;0.50;;;;;;;;;;4970687;28;20199;-68
2024/01/05 07:46:15;;;;;;;0.47;0.47;;;;;;;;;;4972551;28;20172;-67
2024/01/05 07:48:40;;;;;;;2.43;1.27;;;;;;;;;;4971185;28;20247;-69
2024/01/05 07:51:05;;;;;;;0.37;0.30;;;;;;;;;;4964702;28;20188;-68
2024/01/05 07:53:31;;;;;;;0.70;0.50;;;;;;;;;;4965718;28;20176;-68
2024/01/05 07:55:59;;;;;;;1.20;0.50;;;;;;;;;;4964867;28;20231;-67
2024/01/05 07:58:24;;;;;;;0.70;0.30;;;;;;;;;;4966709;28;20208;-68
2024/01/05 08:00:49;;;;;;;1.00;0.60;;;;;;;;;;4968334;28;20392;-67
2024/01/05 08:03:14;;;;;;;0.50;0.30;;;;;;;;;;4971080;28;20180;-67
2024/01/05 08:05:40;;;;;;;1.80;0.50;;;;;;;;;;4970118;28;20185;-66
2024/01/05 08:08:05;;;;;;;1.97;0.43;;;;;;;;;;5006767;23;20462;-69
2024/01/05 08:10:30;;;;;;;1.03;0.60;;;;;;;;;;5047175;28;20186;-67
2024/01/05 08:12:56;;;;;;;2.17;0.40;;;;;;;;;;5050993;28;20695;-69
2024/01/05 08:15:21;;;;;;;2.07;0.83;;;;;;;;;;5050503;28;20197;-69
2024/01/05 08:17:46;;;;;;;1.10;0.70;;;;;;;;;;5045932;28;20182;-68
2024/01/05 08:20:12;;;;;;;1.73;0.97;;;;;;;;;;5031574;28;20214;-69
2024/01/05 08:22:37;;;;;;;0.50;0.40;;;;;;;;;;5030342;28;20182;-69
2024/01/05 08:25:03;;;;;;;0.83;0.70;;;;;;;;;;5029600;28;20182;-69
2024/01/05 08:27:28;;;;;;;2.03;0.90;;;;;;;;;;5029071;28;20198;-70
2024/01/05 08:29:53;;;;;;;2.10;0.70;;;;;;;;;;5026601;28;20293;-69
2024/01/05 08:32:18;;;;;;;2.30;0.80;;;;;;;;;;5025207;28;20266;-69
2024/01/05 08:34:44;;;;;;;1.57;0.80;;;;;;;;;;5029409;28;20194;-71
2024/01/05 08:37:09;;;;;;;4.07;1.03;;;;;;;;;;5024762;28;20201;-68
2024/01/05 08:39:34;;;;;;;3.30;0.80;;;;;;;;;;5029151;28;20191;-70
2024/01/05 08:41:59;;;;;;;2.77;1.13;;;;;;;;;;5029731;28;20183;-69
2024/01/05 08:44:25;;;;;;;4.57;0.90;;;;;;;;;;5026530;28;20186;-69
2024/01/05 08:46:50;;;;;;;0.63;0.60;;;;;;;;;;5025092;28;20248;-70
2024/01/05 08:49:15;;;;;;;1.57;1.20;;;;;;;;;;5028965;28;20688;-69
2024/01/05 08:51:43;;;;;;;1.33;1.23;;;;;;;;;;5033740;28;20260;-69
2024/01/05 08:54:09;;;;;;;1.37;1.00;;;;;;;;;;5027243;28;20201;-68
2024/01/05 08:56:35;;;;;;;2.10;1.50;;;;;;;;;;5009401;28;20193;-69
2024/01/05 08:59:00;;;;;;;3.63;1.47;;;;;;;;;;5028034;28;21924;-69
2024/01/05 09:01:25;;;;;;;4.50;1.60;;;;;;;;;;5026942;28;20181;-69
2024/01/05 09:03:51;;;;;;;3.67;2.20;;;;;;;;;;5027696;28;20178;-70
2024/01/05 09:06:16;;;;;;;2.47;1.80;;;;;;;;;;5025044;28;20649;-69
2024/01/05 09:08:41;;;;;;;4.90;1.47;;;;;;;;;;5010058;28;20643;-69
2024/01/05 09:11:06;;;;;;;3.40;1.73;;;;;;;;;;5027298;28;20180;-70
2024/01/05 09:13:32;;;;;;;1.93;1.70;;;;;;;;;;5027394;28;20190;-69
2024/01/05 09:15:57;;;;;;;3.13;1.67;;;;;;;;;;5029090;28;20226;-68
2024/01/05 09:18:23;;;;;;;3.03;2.37;;;;;;;;;;5033279;28;20481;-69
2024/01/05 09:20:48;;;;;;;3.43;2.80;;;;;;;;;;5015014;28;20605;-68
2024/01/05 09:23:13;;;;;;;3.00;2.17;;;;;;;;;;5032553;28;20182;-69
2024/01/05 09:25:39;;;;;;;4.43;2.60;;;;;;;;;;5029468;28;20689;-70
2024/01/05 09:28:06;;;;;;;4.77;2.60;;;;;;;;;;5014984;28;21611;-68
2024/01/05 09:30:31;;;;;;;4.17;2.50;;;;;;;;;;5028728;28;20277;-69
2024/01/05 09:32:57;;;;;;;4.10;2.67;;;;;;;;;;5031511;28;20265;-68
2024/01/05 09:35:22;;;;;;;3.67;2.40;;;;;;;;;;5028630;28;20206;-69
2024/01/05 09:37:48;;;;;;;3.00;2.27;;;;;;;;;;5028366;28;20654;-70
2024/01/05 09:40:13;;;;;;;4.00;2.53;;;;;;;;;;5030667;28;20559;-70
2024/01/05 09:42:40;;;;;;;3.67;2.73;;;;;;;;;;5032737;28;20668;-69
2024/01/05 09:45:09;;;;;;;3.77;2.47;;;;;;;;;;5016337;28;20174;-69
2024/01/05 09:47:35;;;;;;;3.50;2.10;;;;;;;;;;5034776;28;20171;-69
2024/01/05 09:50:01;;;;;;;2.97;2.27;;;;;;;;;;5029366;28;20722;-68
2024/01/05 09:52:26;;;;;;;3.27;2.20;;;;;;;;;;5010675;28;20193;-68
2024/01/05 09:54:51;;;;;;;4.53;2.63;;;;;;;;;;5033408;28;20217;-68
2024/01/05 09:57:20;;;;;;;2.77;2.27;;;;;;;;;;5031869;28;20182;-68
2024/01/05 09:59:47;;;;;;;2.37;2.00;;;;;;;;;;5029835;28;20224;-69
2024/01/05 10:02:14;;;;;;;2.87;1.93;;;;;;;;;;5030814;28;20678;-70
2024/01/05 10:04:40;;;;;;;2.63;2.10;;;;;;;;;;5031773;28;20178;-70
2024/01/05 10:07:05;;;;;;;4.13;2.50;;;;;;;;;;5031026;28;20650;-69
2024/01/05 10:09:31;;;;;;;3.80;2.03;;;;;;;;;;5011322;28;20352;-69
2024/01/05 10:11:56;;;;;;;2.87;2.23;;;;;;;;;;5009706;28;20197;-70
2024/01/05 10:14:24;;;;;;;3.57;2.70;;;;;;;;;;5031840;28;20182;-69
2024/01/05 10:16:49;;;;;;;3.80;2.53;;;;;;;;;;5030250;28;20712;-70
2024/01/05 10:19:14;;;;;;;3.93;3.17;;;;;;;;;;5033587;28;20221;-70
2024/01/05 10:21:40;;;;;;;5.30;3.67;;;;;;;;;;5031789;28;20484;-70
2024/01/05 10:24:15;;;;;;;4.43;3.33;;;;;;;;;;5031713;28;20210;-69
2024/01/05 10:26:40;;;;;;;6.30;4.40;;;;;;;;;;5027352;28;20174;-69
2024/01/05 10:29:12;;;;;;;6.73;3.83;;;;;;;;;;5031279;28;20249;-70
2024/01/05 10:31:37;;;;;;;4.73;3.63;;;;;;;;;;5028790;28;20709;-68
2024/01/05 10:34:02;;;;;;;7.37;3.83;;;;;;;;;;5033970;28;20174;-69
2024/01/05 10:36:27;;;;;;;6.07;4.17;;;;;;;;;;5030937;28;20256;-68
2024/01/05 10:38:53;;;;;;;8.50;4.40;;;;;;;;;;5027038;28;20221;-69
2024/01/05 10:41:19;;;;;;;6.13;4.33;;;;;;;;;;5028658;28;20174;-69
2024/01/05 10:43:44;;;;;;;5.33;4.50;;;;;;;;;;5029137;28;20650;-69
2024/01/05 10:46:15;;;;;;;5.97;4.43;;;;;;;;;;5028558;28;20189;-69
2024/01/05 10:48:40;;;;;;;5.97;4.23;;;;;;;;;;5029635;28;20209;-69
2024/01/05 10:51:08;;;;;;;5.83;4.57;;;;;;;;;;5029537;28;20178;-69
2024/01/05 10:53:34;;;;;;;8.10;4.70;;;;;;;;;;5030423;28;20551;-69
2024/01/05 10:56:01;;;;;;;9.07;4.77;;;;;;;;;;5030515;28;20218;-69
2024/01/05 10:58:26;;;;;;;8.17;4.43;;;;;;;;;;5030856;28;20194;-70
2024/01/05 11:00:54;;;;;;;5.90;4.63;;;;;;;;;;5029000;28;20181;-69
2024/01/05 11:03:20;;;;;;;5.50;4.67;;;;;;;;;;5028892;28;20177;-68
2024/01/05 11:05:45;;;;;;;5.63;4.50;;;;;;;;;;5029191;28;20174;-70
2024/01/05 11:08:45;;;;;;;5.63;4.17;;;;;;;;;;5028343;28;20289;-70
2024/01/05 11:11:20;;;;;;;5.07;3.80;;;;;;;;;;5012143;28;20185;-68
2024/01/05 11:14:04;;;;;;;4.87;4.20;;;;;;;;;;5029114;28;20174;-68
2024/01/05 11:17:00;;;;;;;8.40;4.63;;;;;;;;;;5030032;28;20238;-68
2024/01/05 11:19:34;;;;;;;4.70;4.00;;;;;;;;;;5025476;28;20198;-71
2024/01/05 11:22:03;;;;;;;5.17;3.60;;;;;;;;;;5029918;28;20184;-69
2024/01/05 11:24:29;;;;;;;5.37;3.97;;;;;;;;;;5030849;28;20179;-69
2024/01/05 11:26:54;;;;;;;5.57;4.47;;;;;;;;;;5030308;28;20674;-68
2024/01/05 11:29:38;;;;;;;5.60;4.20;;;;;;;;;;5015191;28;20205;-69
2024/01/05 11:32:04;;;;;;;5.23;4.30;;;;;;;;;;5030567;28;20174;-70
2024/01/05 11:34:30;;;;;;;4.50;3.60;;;;;;;;;;5030138;28;20174;-69
2024/01/05 11:36:55;;;;;;;6.60;4.00;;;;;;;;;;5015149;28;20212;-69
2024/01/05 11:39:41;;;;;;;4.93;3.93;;;;;;;;;;5029904;28;20669;-68
2024/01/05 11:42:07;;;;;;;5.43;4.03;;;;;;;;;;5025491;28;20730;-70
2024/01/05 11:44:33;;;;;;;7.17;4.93;;;;;;;;;;5027813;28;20261;-70
2024/01/05 11:47:01;;;;;;;5.73;4.03;;;;;;;;;;5032405;28;20182;-70
2024/01/05 11:49:41;;;;;;;6.73;4.13;;;;;;;;;;5012428;28;20630;-70
2024/01/05 11:52:07;;;;;;;4.47;4.07;;;;;;;;;;5030344;28;20220;-70
2024/01/05 11:54:33;;;;;;;6.30;4.13;;;;;;;;;;5029525;28;20193;-69
2024/01/05 11:56:59;;;;;;;4.77;3.77;;;;;;;;;;5030230;28;20178;-68
2024/01/05 11:59:24;;;;;;;6.27;3.73;;;;;;;;;;5026954;28;20203;-71
2024/01/05 12:01:53;;;;;;;5.77;4.50;;;;;;;;;;5030201;28;20205;-69
2024/01/05 12:04:18;;;;;;;5.60;4.00;;;;;;;;;;5028152;28;20190;-70
2024/01/05 12:06:53;;;;;;;7.77;4.00;;;;;;;;;;5032417;28;20244;-70
2024/01/05 12:09:20;;;;;;;4.60;3.40;;;;;;;;;;5009308;28;20229;-69
2024/01/05 12:11:45;;;;;;;6.07;4.17;;;;;;;;;;5025964;28;20265;-69
2024/01/05 12:14:10;;;;;;;6.50;4.20;;;;;;;;;;5028217;28;20266;-69
2024/01/05 12:16:36;;;;;;;6.83;4.33;;;;;;;;;;5011736;28;20586;-71
2024/01/05 12:19:01;;;;;;;5.73;3.93;;;;;;;;;;5028378;28;20567;-70
2024/01/05 12:21:27;;;;;;;4.60;4.10;;;;;;;;;;5028835;28;20186;-70
2024/01/05 12:23:53;;;;;;;5.93;4.53;;;;;;;;;;5029247;28;20198;-70
2024/01/05 12:26:19;;;;;;;6.10;4.57;;;;;;;;;;5027480;28;20218;-70
2024/01/05 12:28:44;;;;;;;6.07;4.37;;;;;;;;;;5026983;28;20592;-69
2024/01/05 12:31:10;;;;;;;5.93;4.20;;;;;;;;;;5011552;28;20216;-69
2024/01/05 12:33:39;;;;;;;10.60;4.20;;;;;;;;;;5029148;28;20585;-69
2024/01/05 12:36:05;;;;;;;6.30;4.67;;;;;;;;;;5028242;28;20198;-69
2024/01/05 12:38:30;;;;;;;7.83;4.30;;;;;;;;;;5026944;28;20205;-68
2024/01/05 12:41:12;;;;;;;5.30;4.57;;;;;;;;;;5029682;28;20216;-69
2024/01/05 12:43:43;;;;;;;6.63;5.10;;;;;;;;;;5007068;28;20198;-70
2024/01/05 12:46:08;;;;;;;7.97;4.57;;;;;;;;;;5027707;28;20276;-70
2024/01/05 12:48:34;;;;;;;5.77;4.53;;;;;;;;;;5027892;28;20221;-68
2024/01/05 12:51:02;;;;;;;5.63;4.37;;;;;;;;;;5031200;28;20194;-70
2024/01/05 12:53:28;;;;;;;9.73;5.23;;;;;;;;;;5028499;28;20220;-70
2024/01/05 12:55:53;;;;;;;6.97;4.67;;;;;;;;;;5027528;28;20695;-68
2024/01/05 12:58:18;;;;;;;7.80;5.93;;;;;;;;;;5026044;28;20305;-69
2024/01/05 13:00:44;;;;;;;7.63;5.03;;;;;;;;;;5027749;28;20233;-70
2024/01/05 13:03:16;;;;;;;6.40;5.07;;;;;;;;;;5028198;28;20175;-70
2024/01/05 13:05:41;;;;;;;7.70;5.13;;;;;;;;;;5023951;28;20214;-70
2024/01/05 13:08:06;;;;;;;6.87;5.20;;;;;;;;;;5029817;28;20659;-71
2024/01/05 13:10:33;;;;;;;6.83;4.50;;;;;;;;;;5028831;28;20194;-68
2024/01/05 13:12:58;;;;;;;7.37;4.30;;;;;;;;;;5029715;28;20202;-70
2024/01/05 13:15:23;;;;;;;7.33;4.13;;;;;;;;;;5027966;28;20284;-69
2024/01/05 13:17:49;;;;;;;6.57;5.00;;;;;;;;;;5030424;28;20185;-70
2024/01/05 13:20:23;;;;;;;4.80;3.73;;;;;;;;;;5026502;28;20548;-70
2024/01/05 13:22:48;;;;;;;6.17;4.13;;;;;;;;;;5025658;28;20190;-69
2024/01/05 13:25:13;;;;;;;6.27;4.03;;;;;;;;;;5029954;28;20650;-69
2024/01/05 13:27:39;;;;;;;7.80;5.20;;;;;;;;;;5030657;28;20182;-69
2024/01/05 13:30:09;;;;;;;6.60;4.17;;;;;;;;;;5035458;28;20190;-70
2024/01/05 13:32:35;;;;;;;8.90;4.63;;;;;;;;;;5016741;28;20186;-69
2024/01/05 13:35:01;;;;;;;8.13;4.77;;;;;;;;;;5034654;28;20194;-69
2024/01/05 13:37:26;;;;;;;8.07;4.10;;;;;;;;;;5030763;28;21756;-70
2024/01/05 13:39:51;;;;;;;7.73;4.77;;;;;;;;;;5030277;28;20241;-70
2024/01/05 13:42:16;;;;;;;5.37;3.77;;;;;;;;;;5029241;28;20187;-69
2024/01/05 13:44:42;;;;;;;7.67;4.00;;;;;;;;;;5027547;28;20670;-70
2024/01/05 13:47:07;;;;;;;7.33;4.00;;;;;;;;;;5026993;28;20201;-70
2024/01/05 13:49:32;;;;;;;5.90;3.60;;;;;;;;;;5026526;28;20245;-69
2024/01/05 13:51:57;;;;;;;5.63;3.77;;;;;;;;;;5010725;28;20236;-68
2024/01/05 13:54:23;;;;;;;7.50;3.73;;;;;;;;;;5008929;28;20178;-70
2024/01/05 13:56:48;;;;;;;5.70;3.43;;;;;;;;;;5028840;28;20182;-69
2024/01/05 13:59:14;;;;;;;8.23;3.90;;;;;;;;;;5026200;28;20213;-69
2024/01/05 14:01:42;;;;;;;6.20;4.20;;;;;;;;;;5011073;28;20174;-70
2024/01/05 14:04:07;;;;;;;6.67;4.00;;;;;;;;;;5027763;28;20548;-70
2024/01/05 14:06:32;;;;;;;8.83;4.30;;;;;;;;;;5032859;28;20183;-70
2024/01/05 14:08:57;;;;;;;8.90;4.97;;;;;;;;;;5031548;28;20237;-70
2024/01/05 14:11:22;;;;;;;7.83;4.97;;;;;;;;;;5032210;28;20201;-69
2024/01/05 14:13:47;;;;;;;7.70;5.20;;;;;;;;;;5012241;28;20606;-69
2024/01/05 14:16:13;;;;;;;8.67;5.17;;;;;;;;;;5031593;28;20284;-68
2024/01/05 14:18:38;;;;;;;7.70;5.33;;;;;;;;;;5010683;28;20678;-69
2024/01/05 14:21:03;;;;;;;9.07;6.10;;;;;;;;;;5016268;28;20642;-69
2024/01/05 14:23:28;;;;;;;9.50;6.03;;;;;;;;;;5015183;28;20258;-68
2024/01/05 14:25:54;;;;;;;8.73;5.43;;;;;;;;;;5031417;28;20190;-70
2024/01/05 14:28:19;;;;;;;9.00;5.47;;;;;;;;;;5031733;28;20202;-69
2024/01/05 14:30:44;;;;;;;7.57;5.20;;;;;;;;;;5031063;28;20179;-70
2024/01/05 14:33:09;;;;;;;10.30;5.70;;;;;;;;;;5029704;28;20182;-69